createdAt,value
2022-08-16T00:02:32.180Z,15.50
2022-08-16T00:05:00.289Z,15.60
2022-08-16T00:07:29.229Z,15.60
2022-08-16T00:09:58.816Z,15.60
2022-08-16T00:12:28.103Z,15.60
2022-08-16T00:14:57.018Z,15.60
2022-08-16T00:17:25.099Z,15.60
2022-08-16T00:19:53.636Z,15.60
2022-08-16T00:22:24.655Z,15.60
2022-08-16T00:24:54.313Z,15.50
2022-08-16T00:27:22.503Z,15.50
2022-08-16T00:30:09.039Z,15.40
2022-08-16T00:32:38.651Z,15.40
2022-08-16T00:35:15.012Z,15.40
2022-08-16T00:37:57.237Z,15.30
2022-08-16T00:40:36.876Z,15.20
2022-08-16T00:43:19.290Z,15.10
2022-08-16T00:46:33.132Z,15.10
2022-08-16T00:48:51.484Z,15.00
2022-08-16T00:51:21.248Z,15.00
2022-08-16T00:53:50.124Z,15.00
2022-08-16T00:56:57.553Z,15.00
2022-08-16T00:59:15.187Z,15.00
2022-08-16T01:01:42.780Z,15.00
2022-08-16T01:04:29.033Z,15.00
2022-08-16T01:07:02.092Z,15.00
2022-08-16T01:09:37.199Z,15.00
2022-08-16T01:12:08.568Z,14.90
2022-08-16T01:14:44.955Z,14.90
2022-08-16T01:17:17.116Z,14.80
2022-08-16T01:19:51.720Z,14.80
2022-08-16T01:22:58.913Z,14.80
2022-08-16T01:25:34.402Z,14.70
2022-08-16T01:28:05.535Z,14.70
2022-08-16T01:30:36.673Z,14.80
2022-08-16T01:33:14.601Z,14.90
2022-08-16T01:36:02.642Z,14.90
2022-08-16T01:38:47.096Z,14.80
2022-08-16T01:41:21.047Z,14.80
2022-08-16T01:43:54.299Z,14.80
2022-08-16T01:46:39.976Z,14.80
2022-08-16T01:49:12.729Z,14.70
2022-08-16T01:51:43.684Z,14.70
2022-08-16T01:54:13.261Z,14.60
2022-08-16T01:56:42.703Z,14.60
2022-08-16T01:59:15.777Z,14.60
2022-08-16T02:01:52.809Z,14.50
2022-08-16T02:04:48.241Z,14.50
2022-08-16T02:07:18.461Z,14.50
2022-08-16T02:09:58.266Z,14.50
2022-08-16T02:12:49.903Z,14.50
2022-08-16T02:15:16.872Z,14.50
2022-08-16T02:17:43.826Z,14.40
2022-08-16T02:20:12.366Z,14.40
2022-08-16T02:22:40.292Z,14.40
2022-08-16T02:25:11.470Z,14.30
2022-08-16T02:27:43.489Z,14.30
2022-08-16T02:30:36.581Z,14.20
2022-08-16T02:33:08.360Z,14.20
2022-08-16T02:35:54.410Z,14.10
2022-08-16T02:38:23.497Z,14.10
2022-08-16T02:40:51.512Z,14.00
2022-08-16T02:43:21.474Z,14.00
2022-08-16T02:45:54.150Z,14.10
2022-08-16T02:48:30.446Z,14.10
2022-08-16T02:51:06.192Z,14.10
2022-08-16T02:53:40.332Z,14.00
2022-08-16T02:56:09.828Z,14.00
2022-08-16T02:58:37.526Z,14.00
2022-08-16T03:01:07.153Z,13.90
2022-08-16T03:04:39.481Z,14.00
2022-08-16T03:06:41.934Z,13.90
2022-08-16T03:09:13.884Z,13.90
2022-08-16T03:11:42.702Z,13.80
2022-08-16T03:14:11.581Z,13.70
2022-08-16T03:16:42.195Z,13.70
2022-08-16T03:19:26.822Z,13.70
2022-08-16T03:22:19.453Z,13.70
2022-08-16T03:24:57.561Z,13.70
2022-08-16T03:27:25.718Z,13.60
2022-08-16T03:30:16.082Z,13.60
2022-08-16T03:32:47.323Z,13.50
2022-08-16T03:35:17.820Z,13.60
2022-08-16T03:38:01.657Z,13.60
2022-08-16T03:40:33.189Z,13.60
2022-08-16T03:43:20.012Z,13.50
2022-08-16T03:45:49.575Z,13.50
2022-08-16T03:48:20.938Z,13.60
2022-08-16T03:51:08.097Z,13.60
2022-08-16T03:53:37.440Z,13.60
2022-08-16T03:56:07.641Z,13.60
2022-08-16T03:58:46.148Z,13.50
2022-08-16T04:01:15.577Z,13.50
2022-08-16T04:03:44.294Z,13.60
2022-08-16T04:06:11.421Z,13.60
2022-08-16T04:08:39.635Z,13.60
2022-08-16T04:11:06.876Z,13.70
2022-08-16T04:14:00.745Z,13.70
2022-08-16T04:16:27.459Z,13.70
2022-08-16T04:19:01.189Z,13.80
2022-08-16T04:21:34.772Z,13.80
2022-08-16T04:24:02.882Z,13.90
2022-08-16T04:26:30.770Z,13.90
2022-08-16T04:29:23.328Z,14.00
2022-08-16T04:31:56.220Z,14.10
2022-08-16T04:34:26.553Z,14.10
2022-08-16T04:36:54.243Z,14.20
2022-08-16T04:39:23.852Z,14.20
2022-08-16T04:41:56.544Z,14.20
2022-08-16T04:44:52.882Z,14.30
2022-08-16T04:47:21.852Z,14.40
2022-08-16T04:49:52.484Z,14.50
2022-08-16T04:52:33.917Z,14.50
2022-08-16T04:55:15.449Z,14.60
2022-08-16T04:57:42.826Z,14.70
2022-08-16T05:00:32.118Z,14.80
2022-08-16T05:03:08.273Z,14.90
2022-08-16T05:05:44.852Z,15.00
2022-08-16T05:08:29.111Z,15.10
2022-08-16T05:11:00.288Z,15.30
2022-08-16T05:13:41.783Z,15.50
2022-08-16T05:16:20.195Z,15.70
2022-08-16T05:18:51.081Z,16.00
2022-08-16T05:21:20.835Z,16.20
2022-08-16T05:23:56.022Z,16.50
2022-08-16T05:26:29.119Z,16.70
2022-08-16T05:29:01.155Z,17.00
2022-08-16T05:31:30.807Z,17.10
2022-08-16T05:34:01.245Z,17.40
2022-08-16T05:36:34.139Z,17.60
2022-08-16T05:39:09.569Z,17.90
2022-08-16T05:41:44.970Z,17.90
2022-08-16T05:44:23.926Z,18.00
2022-08-16T05:46:57.386Z,18.10
2022-08-16T05:49:38.229Z,18.20
2022-08-16T05:52:11.503Z,18.40
2022-08-16T05:54:47.109Z,18.40
2022-08-16T05:57:17.323Z,18.50
2022-08-16T05:59:47.301Z,18.50
2022-08-16T06:02:18.042Z,18.60
2022-08-16T06:04:45.786Z,18.60
2022-08-16T06:07:26.201Z,18.60
2022-08-16T06:09:56.319Z,18.60
2022-08-16T06:12:26.804Z,18.70
2022-08-16T06:14:59.191Z,18.70
2022-08-16T06:17:41.513Z,18.80
2022-08-16T06:20:23.517Z,19.00
2022-08-16T06:22:58.537Z,19.10
2022-08-16T06:25:36.052Z,19.20
2022-08-16T06:28:08.666Z,19.30
2022-08-16T06:30:43.888Z,19.40
2022-08-16T06:33:22.077Z,19.50
2022-08-16T06:35:55.126Z,19.60
2022-08-16T06:38:33.441Z,19.60
2022-08-16T06:41:04.099Z,19.50
2022-08-16T06:43:32.208Z,19.50
2022-08-16T06:46:00.671Z,19.70
2022-08-16T06:48:32.179Z,19.70
2022-08-16T06:51:01.313Z,19.80
2022-08-16T06:53:29.685Z,19.90
2022-08-16T06:55:58.906Z,20.10
2022-08-16T06:58:31.684Z,20.20
2022-08-16T07:01:00.403Z,20.40
2022-08-16T07:03:32.179Z,20.60
2022-08-16T07:05:59.889Z,20.90
2022-08-16T07:08:28.616Z,21.30
2022-08-16T07:10:56.046Z,21.50
2022-08-16T07:13:54.717Z,21.70
2022-08-16T07:16:15.422Z,21.80
2022-08-16T07:18:59.341Z,22.30
2022-08-16T07:21:46.437Z,22.50
2022-08-16T07:24:29.460Z,22.80
2022-08-16T07:26:59.108Z,23.00
2022-08-16T07:29:31.611Z,23.10
2022-08-16T07:32:00.718Z,23.10
2022-08-16T07:34:35.115Z,23.20
2022-08-16T07:37:07.977Z,23.30
2022-08-16T07:39:43.183Z,23.20
2022-08-16T07:42:20.398Z,23.00
2022-08-16T07:44:55.869Z,23.00
2022-08-16T07:47:31.322Z,23.00
2022-08-16T07:50:00.145Z,22.90
2022-08-16T07:52:32.769Z,23.20
2022-08-16T07:55:00.325Z,23.40
2022-08-16T07:57:27.235Z,23.70
2022-08-16T07:59:57.069Z,24.10
2022-08-16T08:02:27.278Z,24.60
2022-08-16T08:04:56.285Z,25.10
2022-08-16T08:07:27.539Z,25.10
2022-08-16T08:09:56.142Z,25.40
2022-08-16T08:12:32.224Z,25.40
2022-08-16T08:15:09.828Z,25.20
2022-08-16T08:17:42.800Z,25.30
2022-08-16T08:20:20.644Z,25.40
2022-08-16T08:23:00.563Z,25.40
2022-08-16T08:25:53.807Z,25.40
2022-08-16T08:28:17.444Z,25.40
2022-08-16T08:30:51.803Z,25.40
2022-08-16T08:33:29.234Z,25.40
2022-08-16T08:36:00.860Z,25.30
2022-08-16T08:38:43.850Z,25.40
2022-08-16T08:41:12.751Z,25.40
2022-08-16T08:43:41.560Z,25.40
2022-08-16T08:46:18.412Z,25.40
2022-08-16T08:49:02.159Z,25.40
2022-08-16T08:51:35.839Z,25.20
2022-08-16T08:54:09.193Z,25.30
2022-08-16T08:56:45.912Z,25.40
2022-08-16T08:59:19.880Z,25.40
2022-08-16T09:01:56.995Z,25.40
2022-08-16T09:04:26.077Z,25.60
2022-08-16T09:06:54.027Z,25.70
2022-08-16T09:09:24.427Z,25.70
2022-08-16T09:12:03.884Z,26.00
2022-08-16T09:14:33.330Z,26.20
2022-08-16T09:17:03.492Z,26.40
2022-08-16T09:19:37.291Z,26.60
2022-08-16T09:22:19.992Z,26.70
2022-08-16T09:24:53.224Z,26.50
2022-08-16T09:27:25.241Z,26.30
2022-08-16T09:30:00.452Z,26.10
2022-08-16T09:32:31.189Z,26.00
2022-08-16T09:35:00.227Z,25.80
2022-08-16T09:37:30.570Z,25.60
2022-08-16T09:40:32.818Z,25.50
2022-08-16T09:42:56.628Z,25.40
2022-08-16T09:45:28.649Z,25.40
2022-08-16T09:47:56.803Z,25.40
2022-08-16T09:50:36.822Z,25.80
2022-08-16T09:53:15.518Z,26.20
2022-08-16T09:55:49.576Z,26.60
2022-08-16T09:58:37.685Z,26.90
2022-08-16T10:01:06.345Z,27.10
2022-08-16T10:03:35.741Z,27.30
2022-08-16T10:06:02.793Z,27.60
2022-08-16T10:08:29.714Z,27.70
2022-08-16T10:11:15.170Z,27.80
2022-08-16T10:13:51.015Z,28.00
2022-08-16T10:16:18.026Z,28.10
2022-08-16T10:19:01.749Z,28.20
2022-08-16T10:21:34.692Z,28.30
2022-08-16T10:24:02.234Z,28.40
2022-08-16T10:27:17.378Z,28.50
2022-08-16T10:29:19.897Z,28.60
2022-08-16T10:31:53.670Z,28.50
2022-08-16T10:34:30.953Z,28.60
2022-08-16T10:37:02.920Z,28.70
2022-08-16T10:39:41.126Z,28.80
2022-08-16T10:42:13.224Z,28.70
2022-08-16T10:44:42.439Z,28.90
2022-08-16T10:47:11.561Z,29.20
2022-08-16T10:49:39.157Z,29.30
2022-08-16T10:52:18.191Z,29.30
2022-08-16T10:57:33.314Z,29.30
2022-08-16T11:00:05.944Z,29.10
2022-08-16T11:02:58.530Z,29.20
2022-08-16T11:05:59.158Z,29.30
2022-08-16T11:08:17.970Z,29.20
2022-08-16T11:11:00.037Z,29.20
2022-08-16T11:19:12.555Z,29.20
2022-08-16T11:24:41.177Z,29.30
2022-08-16T11:27:19.428Z,29.30
2022-08-16T11:29:49.495Z,29.30
2022-08-16T11:32:20.191Z,29.30
2022-08-16T11:35:15.721Z,29.40
2022-08-16T11:38:23.988Z,29.40
2022-08-16T11:40:32.452Z,29.40
2022-08-16T11:43:04.132Z,29.30
2022-08-16T11:45:33.650Z,29.30
2022-08-16T11:48:03.922Z,29.30
2022-08-16T11:50:34.235Z,29.40
2022-08-16T11:53:03.493Z,29.30
2022-08-16T11:55:32.019Z,29.60
2022-08-16T11:58:00.440Z,29.60
2022-08-16T12:00:50.519Z,29.70
2022-08-16T12:03:17.079Z,29.80
2022-08-16T12:05:45.954Z,30.00
2022-08-16T12:08:13.295Z,30.20
2022-08-16T12:10:46.933Z,30.30
2022-08-16T12:13:14.683Z,30.60
2022-08-16T12:15:42.732Z,30.60
2022-08-16T12:18:11.874Z,30.50
2022-08-16T12:20:47.934Z,30.40
2022-08-16T12:23:15.558Z,30.30
2022-08-16T12:25:45.095Z,30.30
2022-08-16T12:28:12.778Z,30.30
2022-08-16T12:30:43.433Z,30.30
2022-08-16T12:33:14.615Z,30.30
2022-08-16T12:35:52.679Z,30.30
2022-08-16T12:38:40.788Z,30.40
2022-08-16T12:41:08.262Z,30.60
2022-08-16T12:43:35.600Z,30.60
2022-08-16T12:46:03.594Z,30.50
2022-08-16T12:48:51.045Z,30.50
2022-08-16T12:51:24.184Z,30.20
2022-08-16T12:53:52.732Z,30.30
2022-08-16T12:56:25.370Z,30.10
2022-08-16T12:58:53.385Z,30.20
2022-08-16T13:01:26.833Z,30.30
2022-08-16T13:04:12.076Z,30.20
2022-08-16T13:06:43.501Z,30.00
2022-08-16T13:09:20.273Z,29.90
2022-08-16T13:12:01.732Z,30.00
2022-08-16T13:14:41.227Z,30.10
2022-08-16T13:17:18.794Z,30.00
2022-08-16T13:22:36.991Z,30.00
2022-08-16T13:25:07.315Z,29.90
2022-08-16T13:28:02.950Z,29.80
2022-08-16T13:30:37.247Z,29.80
2022-08-16T13:33:11.480Z,29.80
2022-08-16T13:35:43.103Z,29.90
2022-08-16T13:38:11.039Z,29.90
2022-08-16T13:40:52.095Z,29.90
2022-08-16T13:43:21.602Z,30.10
2022-08-16T13:45:50.450Z,30.10
2022-08-16T13:48:26.508Z,30.00
2022-08-16T13:51:10.151Z,29.80
2022-08-16T13:53:44.676Z,29.90
2022-08-16T13:56:22.336Z,30.00
2022-08-16T13:58:54.374Z,30.00
2022-08-16T14:01:22.228Z,30.00
2022-08-16T14:03:54.619Z,29.80
2022-08-16T14:06:22.379Z,29.70
2022-08-16T14:08:58.830Z,29.30
2022-08-16T14:11:32.993Z,29.00
2022-08-16T14:14:00.693Z,28.60
2022-08-16T14:16:34.009Z,28.50
2022-08-16T14:19:02.279Z,28.30
2022-08-16T14:21:34.906Z,28.10
2022-08-16T14:24:12.730Z,27.90
2022-08-16T14:26:49.577Z,27.70
2022-08-16T14:31:49.611Z,27.50
2022-08-16T14:34:21.296Z,27.50
2022-08-16T14:36:53.029Z,27.80
2022-08-16T14:39:22.187Z,28.00
2022-08-16T14:41:53.726Z,28.10
2022-08-16T14:44:23.623Z,28.10
2022-08-16T14:46:50.477Z,28.20
2022-08-16T14:49:19.737Z,28.20
2022-08-16T14:51:48.925Z,28.10
2022-08-16T14:54:16.075Z,28.20
2022-08-16T14:56:54.490Z,28.20
2022-08-16T14:59:22.782Z,28.00
2022-08-16T15:01:59.074Z,27.90
2022-08-16T15:04:39.353Z,27.80
2022-08-16T15:07:16.372Z,27.80
2022-08-16T15:10:00.669Z,27.50
2022-08-16T15:12:33.680Z,27.30
2022-08-16T15:15:04.614Z,27.30
2022-08-16T15:17:41.242Z,27.40
2022-08-16T15:20:09.133Z,27.50
2022-08-16T15:22:46.380Z,27.50
2022-08-16T15:25:29.515Z,27.60
2022-08-16T15:27:58.651Z,27.70
2022-08-16T15:30:56.776Z,27.70
2022-08-16T15:33:17.444Z,27.70
2022-08-16T15:35:46.258Z,27.80
2022-08-16T15:38:43.585Z,27.80
2022-08-16T15:41:01.247Z,27.80
2022-08-16T15:43:39.308Z,27.80
2022-08-16T15:46:54.137Z,27.70
2022-08-16T15:49:12.108Z,27.70
2022-08-16T15:51:39.730Z,27.80
2022-08-16T15:54:21.456Z,27.80
2022-08-16T15:56:55.352Z,27.80
2022-08-16T15:59:27.395Z,27.90
2022-08-16T16:01:56.475Z,28.40
2022-08-16T16:04:25.850Z,29.20
2022-08-16T16:06:55.144Z,29.90
2022-08-16T16:09:34.548Z,30.60
2022-08-16T16:12:16.365Z,31.30
2022-08-16T16:14:52.631Z,32.00
2022-08-16T16:17:19.652Z,32.80
2022-08-16T16:19:49.740Z,33.50
2022-08-16T16:22:21.766Z,33.30
2022-08-16T16:24:52.403Z,31.90
2022-08-16T16:27:19.295Z,30.90
2022-08-16T16:29:57.828Z,31.40
2022-08-16T16:32:34.733Z,32.20
2022-08-16T16:35:04.219Z,33.20
2022-08-16T16:37:33.072Z,33.20
2022-08-16T16:40:01.389Z,33.90
2022-08-16T16:42:31.439Z,34.10
2022-08-16T16:45:01.566Z,34.90
2022-08-16T16:47:29.610Z,35.10
2022-08-16T16:49:56.563Z,35.10
2022-08-16T16:52:44.127Z,35.50
2022-08-16T16:55:13.290Z,36.00
2022-08-16T16:58:01.036Z,35.60
2022-08-16T17:00:38.595Z,35.20
2022-08-16T17:03:17.011Z,34.40
2022-08-16T17:05:58.772Z,34.50
2022-08-16T17:08:30.308Z,34.80
2022-08-16T17:10:57.774Z,34.50
2022-08-16T17:13:25.368Z,34.00
2022-08-16T17:15:54.102Z,31.80
2022-08-16T17:19:15.445Z,30.20
2022-08-16T17:21:13.070Z,29.10
2022-08-16T17:23:58.225Z,27.00
2022-08-16T17:26:30.125Z,26.30
2022-08-16T17:29:02.766Z,26.10
2022-08-16T17:31:43.150Z,25.80
2022-08-16T17:34:28.462Z,25.50
2022-08-16T17:36:56.635Z,25.30
2022-08-16T17:39:29.185Z,24.90
2022-08-16T17:42:01.513Z,24.70
2022-08-16T17:44:28.818Z,24.50
2022-08-16T17:46:56.099Z,24.20
2022-08-16T17:49:23.083Z,23.90
2022-08-16T17:51:50.033Z,23.80
2022-08-16T17:54:18.347Z,23.60
2022-08-16T17:56:57.407Z,23.40
2022-08-16T17:59:24.323Z,23.30
2022-08-16T18:01:51.361Z,23.10
2022-08-16T18:04:49.569Z,23.00
2022-08-16T18:07:05.628Z,22.90
2022-08-16T18:09:32.539Z,22.80
2022-08-16T18:11:59.451Z,22.70
2022-08-16T18:14:52.432Z,22.60
2022-08-16T18:17:13.571Z,22.40
2022-08-16T18:19:40.458Z,22.20
2022-08-16T18:22:19.205Z,22.10
2022-08-16T18:24:52.008Z,22.00
2022-08-16T18:27:25.217Z,21.90
2022-08-16T18:29:54.146Z,21.70
2022-08-16T18:32:24.892Z,21.70
2022-08-16T18:34:54.293Z,21.60
2022-08-16T18:37:22.778Z,21.50
2022-08-16T18:39:49.724Z,21.40
2022-08-16T18:42:16.767Z,21.30
2022-08-16T18:44:44.477Z,21.10
2022-08-16T18:47:11.803Z,21.00
2022-08-16T18:49:39.247Z,20.90
2022-08-16T18:52:06.546Z,20.80
2022-08-16T18:55:01.519Z,20.80
2022-08-16T18:57:21.312Z,20.70
2022-08-16T18:59:48.272Z,20.60
2022-08-16T19:02:54.915Z,20.60
2022-08-16T19:05:20.024Z,20.60
2022-08-16T19:07:46.977Z,20.60
2022-08-16T19:10:14.020Z,20.50
2022-08-16T19:12:42.424Z,20.50
2022-08-16T19:15:13.737Z,20.50
2022-08-16T19:17:41.577Z,20.40
2022-08-16T19:20:10.969Z,20.40
2022-08-16T19:23:02.260Z,20.40
2022-08-16T19:25:46.886Z,20.40
2022-08-16T19:28:44.242Z,20.40
2022-08-16T19:31:05.766Z,20.40
2022-08-16T19:33:33.022Z,20.30
2022-08-16T19:36:00.305Z,20.20
2022-08-16T19:38:27.352Z,20.20
2022-08-16T19:40:54.414Z,20.20
2022-08-16T19:43:22.037Z,20.20
2022-08-16T19:45:49.496Z,20.20
2022-08-16T19:48:16.471Z,20.20
2022-08-16T19:50:43.364Z,20.20
2022-08-16T19:53:18.753Z,20.10
2022-08-16T19:55:47.384Z,20.00
2022-08-16T19:58:15.557Z,20.00
2022-08-16T20:00:43.780Z,19.90
2022-08-16T20:03:14.197Z,19.80
2022-08-16T20:05:43.151Z,19.80
2022-08-16T20:08:11.380Z,19.80
2022-08-16T20:10:40.703Z,19.80
2022-08-16T20:13:14.148Z,19.80
2022-08-16T20:15:41.986Z,19.80
2022-08-16T20:18:21.277Z,19.80
2022-08-16T20:20:53.182Z,19.80
2022-08-16T20:23:24.582Z,19.70
2022-08-16T20:25:55.923Z,19.60
2022-08-16T20:28:53.125Z,19.50
2022-08-16T20:31:11.622Z,19.40
2022-08-16T20:33:38.507Z,19.30
2022-08-16T20:36:05.607Z,19.20
2022-08-16T20:38:32.564Z,19.10
2022-08-16T20:40:59.451Z,19.20
2022-08-16T20:43:26.377Z,19.20
2022-08-16T20:45:53.380Z,19.10
2022-08-16T20:48:20.352Z,19.10
2022-08-16T20:50:47.243Z,19.10
2022-08-16T20:53:14.140Z,19.10
2022-08-16T20:55:41.817Z,19.10
2022-08-16T20:58:08.720Z,19.10
2022-08-16T21:00:35.759Z,19.00
2022-08-16T21:03:13.384Z,18.90
2022-08-16T21:05:40.266Z,18.90
2022-08-16T21:08:51.731Z,18.80
2022-08-16T21:10:54.529Z,18.60
2022-08-16T21:13:21.423Z,18.40
2022-08-16T21:15:49.314Z,18.40
2022-08-16T21:18:16.201Z,18.30
2022-08-16T21:20:43.235Z,18.20
2022-08-16T21:23:11.340Z,18.10
2022-08-16T21:25:58.549Z,18.10
2022-08-16T21:28:41.786Z,18.10
2022-08-16T21:31:15.811Z,18.00
2022-08-16T21:33:43.686Z,18.00
2022-08-16T21:36:11.964Z,18.00
2022-08-16T21:38:40.097Z,18.00
2022-08-16T21:41:08.471Z,18.00
2022-08-16T21:43:35.524Z,17.90
2022-08-16T21:46:04.153Z,17.90
2022-08-16T21:48:35.195Z,17.80
2022-08-16T21:51:12.591Z,17.80
2022-08-16T21:53:39.873Z,17.80
2022-08-16T21:56:07.101Z,17.70
2022-08-16T21:58:37.196Z,17.70
2022-08-16T22:01:16.654Z,17.80
2022-08-16T22:03:43.591Z,17.80
2022-08-16T22:06:12.357Z,17.80
2022-08-16T22:08:49.119Z,17.70
2022-08-16T22:11:23.014Z,17.70
2022-08-16T22:13:58.823Z,17.60
2022-08-16T22:16:36.395Z,17.60
2022-08-16T22:19:04.683Z,17.50
2022-08-16T22:21:32.855Z,17.50
2022-08-16T22:24:00.230Z,17.40
2022-08-16T22:26:30.740Z,17.40
2022-08-16T22:29:05.566Z,17.40
2022-08-16T22:31:33.577Z,17.40
2022-08-16T22:34:01.933Z,17.30
2022-08-16T22:36:30.042Z,17.30
2022-08-16T22:38:58.865Z,17.20
2022-08-16T22:41:28.195Z,17.10
2022-08-16T22:43:55.866Z,17.10
2022-08-16T22:46:22.923Z,17.00
2022-08-16T22:48:50.837Z,17.00
2022-08-16T22:51:19.402Z,16.90
2022-08-16T22:53:46.470Z,16.90
2022-08-16T22:56:15.602Z,16.80
2022-08-16T22:58:43.032Z,16.90
2022-08-16T23:01:12.186Z,16.90
2022-08-16T23:03:39.767Z,16.90
2022-08-16T23:06:07.771Z,16.90
2022-08-16T23:08:39.295Z,16.90
2022-08-16T23:11:13.658Z,16.90
2022-08-16T23:13:49.849Z,16.90
2022-08-16T23:16:28.750Z,16.80
2022-08-16T23:19:00.614Z,16.80
2022-08-16T23:21:27.846Z,16.70
2022-08-16T23:23:54.704Z,16.80
2022-08-16T23:26:46.919Z,16.80
2022-08-16T23:29:22.279Z,16.70
2022-08-16T23:31:53.637Z,16.70
2022-08-16T23:34:21.574Z,16.60
2022-08-16T23:36:48.466Z,16.60
2022-08-16T23:39:15.390Z,16.70
2022-08-16T23:41:43.871Z,16.60
2022-08-16T23:44:42.325Z,16.60
2022-08-16T23:46:59.202Z,16.50
2022-08-16T23:49:55.923Z,16.50
2022-08-16T23:52:13.055Z,16.40
2022-08-16T23:54:39.911Z,16.40
2022-08-16T23:57:08.101Z,16.40
2022-08-16T23:59:52.153Z,16.50
